Time;durP1;ratioP1;P1;durP2;ratioP2;P2;SDS_P1;SDS_P2;PMS_P1;PMS_P2;Temp;Humidity;BMP_temperature;BMP_pressure;BME280_temperature;BME280_humidity;BME280_pressure;Samples;Min_cycle;Max_cycle;Signal;HPM_P1;HPM_P2
2022/08/24 00:01:04;;;;;;;10.23;4.03;;;;;;;24.47;67.91;100512.91;2100585;28;20063;-74
2022/08/24 00:02:27;;;;;;;12.88;4.13;;;;;;;24.50;67.94;100512.75;2102983;28;20040;-74
2022/08/24 00:03:50;;;;;;;9.27;3.90;;;;;;;24.51;67.77;100520.78;2109863;28;20054;-74
2022/08/24 00:05:13;;;;;;;9.68;3.85;;;;;;;24.52;67.51;100511.75;2105690;28;20040;-74
2022/08/24 00:06:37;;;;;;;11.48;4.35;;;;;;;24.52;67.69;100516.25;2084329;28;20053;-74
2022/08/24 00:08:00;;;;;;;11.55;3.78;;;;;;;24.50;67.57;100521.72;2090847;28;20079;-73
2022/08/24 00:09:21;;;;;;;10.18;3.45;;;;;;;24.51;67.59;100522.59;2094799;28;20149;-73
2022/08/24 00:10:44;;;;;;;15.27;4.38;;;;;;;24.52;67.57;100522.53;2094404;28;20610;-74
2022/08/24 00:12:05;;;;;;;12.38;4.30;;;;;;;24.52;67.44;100522.53;2086391;28;20048;-74
2022/08/24 00:13:29;;;;;;;8.23;3.70;;;;;;;24.54;67.14;100525.16;2099190;28;20519;-74
2022/08/24 00:14:50;;;;;;;13.02;3.78;;;;;;;24.54;67.26;100519.78;2094674;28;20101;-74
2022/08/24 00:16:12;;;;;;;12.80;4.28;;;;;;;24.53;67.05;100518.91;2097890;28;20738;-74
2022/08/24 00:17:34;;;;;;;11.88;4.78;;;;;;;24.52;67.03;100510.84;2103051;28;20105;-73
2022/08/24 00:18:56;;;;;;;11.63;3.83;;;;;;;24.50;67.08;100510.03;2086089;28;20567;-73
2022/08/24 00:20:19;;;;;;;10.65;3.63;;;;;;;24.49;67.11;100501.06;2087860;28;20044;-74
2022/08/24 00:21:43;;;;;;;9.80;3.60;;;;;;;24.49;66.96;100506.47;2094142;28;20086;-74
2022/08/24 00:23:05;;;;;;;9.98;3.90;;;;;;;24.49;67.15;100505.59;2095295;28;20146;-74
2022/08/24 00:24:28;;;;;;;7.97;3.97;;;;;;;24.48;67.36;100504.72;2086370;28;20095;-74
2022/08/24 00:25:50;;;;;;;9.80;3.95;;;;;;;24.48;67.28;100506.56;2095144;28;20052;-74
2022/08/24 00:27:13;;;;;;;9.02;3.60;;;;;;;24.46;67.07;100509.31;2102637;28;20152;-74
2022/08/24 00:28:35;;;;;;;8.48;3.85;;;;;;;24.45;67.24;100504.88;2100363;28;20067;-74
2022/08/24 00:29:57;;;;;;;7.85;4.07;;;;;;;24.44;67.35;100513.03;2097082;28;20129;-73
2022/08/24 00:31:19;;;;;;;9.73;4.60;;;;;;;24.43;67.32;100508.56;2100490;28;20044;-73
2022/08/24 00:32:42;;;;;;;11.20;4.40;;;;;;;24.39;67.37;100509.66;2086282;28;20045;-74
2022/08/24 00:34:05;;;;;;;13.85;4.88;;;;;;;24.35;67.47;100508.91;2085989;28;20057;-73
2022/08/24 00:35:29;;;;;;;7.88;3.90;;;;;;;24.32;67.39;100502.78;2079495;28;20418;-73
2022/08/24 00:36:54;;;;;;;7.93;4.00;;;;;;;24.30;67.67;100502.84;2078815;28;20103;-74
2022/08/24 00:38:15;;;;;;;9.63;4.07;;;;;;;24.28;67.66;100493.97;2094402;28;20056;-74
2022/08/24 00:39:38;;;;;;;8.15;4.22;;;;;;;24.28;67.94;100502.06;2093361;28;20067;-74
2022/08/24 00:40:59;;;;;;;12.88;4.07;;;;;;;24.27;67.72;100494.91;2094586;28;20143;-74
2022/08/24 00:42:22;;;;;;;8.85;3.45;;;;;;;24.27;67.99;100502.13;2087146;28;20099;-74
2022/08/24 00:43:53;;;;;;;7.28;3.60;;;;;;;24.25;68.08;100499.50;2090753;28;20041;-73
2022/08/24 00:45:17;;;;;;;8.73;3.75;;;;;;;24.20;68.24;100505.09;2092126;28;20425;-73
2022/08/24 00:46:43;;;;;;;8.45;3.80;;;;;;;24.19;68.21;100491.66;2083978;28;20049;-73
2022/08/24 00:48:12;;;;;;;8.75;4.13;;;;;;;24.16;68.07;100498.03;2081462;28;20502;-74
2022/08/24 00:49:40;;;;;;;9.40;3.70;;;;;;;24.15;68.10;100495.44;2093744;28;20044;-73
2022/08/24 00:51:07;;;;;;;14.48;4.47;;;;;;;24.13;67.78;100491.91;2095325;28;20052;-73
2022/08/24 00:52:35;;;;;;;11.48;3.75;;;;;;;24.15;67.64;100492.72;2094344;28;20041;-74
2022/08/24 00:54:01;;;;;;;6.47;3.47;;;;;;;24.14;67.69;100486.47;2086872;28;20053;-74
2022/08/24 00:55:29;;;;;;;9.40;3.78;;;;;;;24.12;67.83;100482.06;2092739;28;20428;-73
2022/08/24 00:56:53;;;;;;;9.18;3.53;;;;;;;24.09;67.99;100487.63;2099258;28;20052;-74
2022/08/24 00:58:21;;;;;;;12.80;4.15;;;;;;;24.06;68.21;100485.03;2086443;28;20383;-73
2022/08/24 00:59:49;;;;;;;7.18;4.25;;;;;;;24.03;68.05;100479.75;2080262;28;20049;-74
2022/08/24 01:01:12;;;;;;;9.70;3.72;;;;;;;23.98;68.17;100479.97;2092910;28;20050;-74
2022/08/24 01:02:40;;;;;;;7.90;3.58;;;;;;;23.96;68.17;100478.31;2096638;28;20559;-73
2022/08/24 01:04:04;;;;;;;8.13;3.55;;;;;;;23.93;68.19;100479.31;2079049;28;20573;-73
2022/08/24 01:05:26;;;;;;;8.60;3.75;;;;;;;23.92;68.22;100480.25;2080320;28;20049;-73
2022/08/24 01:06:49;;;;;;;8.57;3.90;;;;;;;23.93;68.07;100476.63;2083260;28;20075;-73
2022/08/24 01:08:12;;;;;;;7.18;3.53;;;;;;;23.94;68.04;100481.06;2090388;28;20147;-73
2022/08/24 01:09:35;;;;;;;12.27;3.80;;;;;;;23.90;68.02;100486.63;2096746;28;20135;-72
2022/08/24 01:11:01;;;;;;;11.20;4.28;;;;;;;23.87;68.41;100478.69;2092788;28;20062;-73
2022/08/24 01:12:27;;;;;;;9.30;3.65;;;;;;;23.81;68.31;100480.72;2091919;28;20048;-73
2022/08/24 01:13:51;;;;;;;10.05;4.45;;;;;;;23.78;68.39;100470.06;2088109;28;20064;-73
2022/08/24 01:15:14;;;;;;;7.15;3.50;;;;;;;23.80;68.41;100475.41;2094302;28;20592;-73
2022/08/24 01:20:04;;;;;;;10.00;3.78;;;;;;;23.85;68.14;100470.66;2088765;28;20056;-73
2022/08/24 01:21:30;;;;;;;7.85;3.70;;;;;;;23.86;68.30;100469.72;2080148;28;20076;-73
2022/08/24 01:23:02;;;;;;;10.00;4.05;;;;;;;23.87;68.37;100466.09;2090217;28;20044;-73
2022/08/24 01:24:25;;;;;;;8.95;3.65;;;;;;;23.86;68.33;100466.16;2095244;28;20049;-73
2022/08/24 01:25:48;;;;;;;10.32;3.88;;;;;;;23.84;68.54;100469.78;2085700;28;20057;-73
2022/08/24 01:27:10;;;;;;;8.07;3.95;;;;;;;23.82;68.45;100458.22;2083418;28;20087;-73
2022/08/24 01:28:35;;;;;;;8.55;3.58;;;;;;;23.82;68.22;100457.34;2077811;28;20075;-72
2022/08/24 01:29:59;;;;;;;11.23;3.70;;;;;;;23.82;68.29;100460.91;2081084;28;20166;-73
2022/08/24 01:31:23;;;;;;;9.60;4.00;;;;;;;23.81;68.41;100455.59;2089094;28;20067;-73
2022/08/24 01:32:52;;;;;;;7.82;3.50;;;;;;;23.79;68.32;100454.75;2082720;28;20048;-73
2022/08/24 01:34:15;;;;;;;9.23;3.63;;;;;;;23.76;68.50;100455.75;2084701;28;20057;-73
2022/08/24 01:35:38;;;;;;;9.02;3.60;;;;;;;23.75;68.52;100456.72;2080473;28;20041;-73
2022/08/24 01:37:02;;;;;;;10.13;3.60;;;;;;;23.71;68.71;100451.53;2087999;28;20400;-74
2022/08/24 01:38:24;;;;;;;8.73;3.58;;;;;;;23.66;68.83;100453.53;2084836;28;20072;-73
2022/08/24 01:39:48;;;;;;;;;;;;;;;23.56;68.99;100458.47;2086354;28;20045;-73
2022/08/24 01:41:10;;;;;;;9.65;4.93;;;;;;;23.50;69.17;100458.69;2091462;28;20484;-73
2022/08/24 01:42:33;;;;;;;10.50;3.70;;;;;;;23.47;69.43;100452.53;2088171;28;20397;-72
2022/08/24 01:43:55;;;;;;;7.35;3.67;;;;;;;23.44;69.21;100449.03;2083103;28;20051;-73
2022/08/24 01:45:19;;;;;;;11.82;3.55;;;;;;;23.42;69.53;100450.06;2099302;28;20059;-73
2022/08/24 01:46:43;;;;;;;9.07;3.60;;;;;;;23.36;69.70;100447.63;2090220;28;20183;-73
2022/08/24 01:48:06;;;;;;;7.72;4.30;;;;;;;23.32;70.15;100446.84;2088236;28;20146;-73
2022/08/24 01:49:30;;;;;;;11.10;4.03;;;;;;;23.35;70.46;100452.13;2091394;28;20103;-73
2022/08/24 01:50:53;;;;;;;8.32;3.80;;;;;;;23.40;70.18;100449.25;2090894;28;20070;-73
2022/08/24 01:52:19;;;;;;;10.43;4.55;;;;;;;23.47;70.24;100444.47;2085159;28;20139;-73
2022/08/24 01:53:42;;;;;;;12.52;3.83;;;;;;;23.48;69.73;100444.44;2093932;28;20511;-74
2022/08/24 01:55:08;;;;;;;10.15;4.10;;;;;;;23.53;69.54;100430.75;2086978;28;20048;-73
2022/08/24 01:56:32;;;;;;;8.68;3.88;;;;;;;23.55;69.36;100435.16;2090284;28;20071;-75
2022/08/24 01:57:53;;;;;;;7.72;4.47;;;;;;;23.56;69.51;100431.53;2094018;28;20569;-73
2022/08/24 01:59:16;;;;;;;8.65;3.72;;;;;;;23.57;69.64;100430.56;2101639;28;20056;-73
2022/08/24 02:00:39;;;;;;;8.25;3.83;;;;;;;23.59;69.70;100434.06;2088348;28;20033;-73
2022/08/24 02:02:03;;;;;;;;;;;;;;;23.54;69.39;100432.50;2094843;28;20055;-73
2022/08/24 02:03:25;;;;;;;5.20;3.35;;;;;;;23.50;69.66;100434.44;2095723;28;20199;-72
2022/08/24 02:04:50;;;;;;;9.80;4.32;;;;;;;23.47;69.64;100431.91;2093054;28;20516;-73
2022/08/24 02:06:13;;;;;;;8.13;3.60;;;;;;;23.41;69.73;100434.81;2087582;28;20386;-73
2022/08/24 02:07:36;;;;;;;6.00;3.60;;;;;;;23.34;69.75;100430.63;2083573;28;20040;-73
2022/08/24 02:08:59;;;;;;;10.85;4.13;;;;;;;23.29;70.02;100438.03;2093627;28;20059;-72
2022/08/24 02:10:22;;;;;;;12.88;4.63;;;;;;;23.28;70.12;100438.97;2085611;28;20051;-72
2022/08/24 02:11:48;;;;;;;9.35;4.00;;;;;;;23.28;70.03;100431.78;2083412;28;20135;-73
2022/08/24 02:13:09;;;;;;;7.80;3.67;;;;;;;23.27;69.96;100429.13;2082343;28;20041;-73
2022/08/24 02:14:33;;;;;;;12.32;4.25;;;;;;;23.25;70.13;100431.88;2088548;28;20086;-73
2022/08/24 02:15:56;;;;;;;9.30;4.38;;;;;;;23.24;70.19;100431.94;2090099;28;20056;-73
2022/08/24 02:17:18;;;;;;;8.52;4.20;;;;;;;23.24;70.40;100438.22;2093771;28;20045;-73
2022/08/24 02:18:42;;;;;;;12.00;4.15;;;;;;;23.27;70.42;100438.09;2090996;28;20098;-73
2022/08/24 02:20:06;;;;;;;9.68;3.95;;;;;;;23.30;70.42;100437.94;2074570;28;20799;-73
2022/08/24 02:21:29;;;;;;;10.25;4.53;;;;;;;23.33;70.42;100434.28;2080888;28;20053;-73
2022/08/24 02:22:52;;;;;;;11.18;4.32;;;;;;;23.34;70.29;100439.59;2087638;28;20045;-74
2022/08/24 02:24:15;;;;;;;6.60;3.67;;;;;;;23.34;70.30;100439.59;2085500;28;20049;-73
2022/08/24 02:25:38;;;;;;;8.68;3.97;;;;;;;23.34;70.24;100436.91;2085433;28;20041;-73
2022/08/24 02:27:01;;;;;;;11.13;4.85;;;;;;;23.31;70.61;100433.44;2088656;28;20519;-73
2022/08/24 02:28:24;;;;;;;11.02;4.35;;;;;;;23.31;70.57;100433.44;2092673;28;20044;-73
2022/08/24 02:29:46;;;;;;;6.20;3.97;;;;;;;23.31;70.57;100431.63;2086249;28;20045;-73
2022/08/24 02:31:13;;;;;;;9.20;4.28;;;;;;;23.32;70.76;100427.13;2090855;28;20084;-73
2022/08/24 02:32:38;;;;;;;9.45;4.30;;;;;;;23.31;70.77;100430.75;2084942;28;20045;-73
2022/08/24 02:34:01;;;;;;;9.45;4.60;;;;;;;23.30;70.64;100432.56;2083615;28;20060;-73
2022/08/24 02:35:25;;;;;;;8.90;4.35;;;;;;;23.25;70.31;100421.13;2085541;28;20045;-73
2022/08/24 02:36:48;;;;;;;9.60;4.35;;;;;;;23.18;70.47;100418.72;2092845;28;20037;-73
2022/08/24 02:38:11;;;;;;;6.10;3.72;;;;;;;23.09;70.82;100411.94;2090440;28;20079;-73
2022/08/24 02:39:33;;;;;;;9.82;4.50;;;;;;;23.04;71.31;100412.09;2084432;28;20059;-73
2022/08/24 02:41:02;;;;;;;11.52;4.47;;;;;;;23.07;71.49;100411.13;2093863;28;20045;-73
2022/08/24 02:42:24;;;;;;;8.88;4.82;;;;;;;23.11;71.31;100417.22;2088669;28;20405;-73
2022/08/24 02:43:47;;;;;;;9.77;4.07;;;;;;;23.13;71.14;100410.84;2090708;28;20139;-73
2022/08/24 02:45:10;;;;;;;7.65;3.95;;;;;;;23.19;70.97;100420.50;2098471;28;20044;-74
2022/08/24 02:46:33;;;;;;;8.50;4.88;;;;;;;23.21;70.65;100414.13;2090902;28;20040;-73
2022/08/24 02:47:57;;;;;;;7.63;3.97;;;;;;;23.25;70.54;100417.53;2090749;28;20139;-73
2022/08/24 02:49:20;;;;;;;7.72;3.72;;;;;;;23.25;70.33;100420.22;2086964;28;20041;-73
2022/08/24 02:50:45;;;;;;;9.13;4.75;;;;;;;23.22;70.20;100425.78;2083032;28;20049;-73
2022/08/24 02:52:06;;;;;;;8.85;4.55;;;;;;;23.16;70.28;100428.72;2090340;28;20048;-73
2022/08/24 02:53:31;;;;;;;10.60;4.72;;;;;;;23.08;70.48;100426.34;2085489;28;20136;-73
2022/08/24 02:54:54;;;;;;;6.82;4.20;;;;;;;22.98;71.07;100424.94;2083573;28;20048;-73
2022/08/24 02:56:19;;;;;;;7.72;4.80;;;;;;;22.94;71.48;100434.09;2083128;28;20045;-73
2022/08/24 02:57:41;;;;;;;8.02;4.20;;;;;;;22.86;71.54;100431.72;2085592;28;20102;-73
2022/08/24 02:59:04;;;;;;;9.48;4.60;;;;;;;22.80;71.94;100441.84;2091029;28;20098;-73
2022/08/24 03:00:27;;;;;;;9.45;4.68;;;;;;;22.79;72.23;100432.88;2093598;28;20051;-73
2022/08/24 03:01:50;;;;;;;8.98;4.45;;;;;;;22.86;72.28;100430.84;2094013;28;20052;-73
2022/08/24 03:03:14;;;;;;;8.85;4.53;;;;;;;22.93;72.28;100433.22;2084539;28;20064;-73
2022/08/24 03:04:38;;;;;;;7.38;4.13;;;;;;;23.02;72.05;100445.44;2086767;28;20055;-74
2022/08/24 03:06:00;;;;;;;8.85;4.80;;;;;;;23.09;71.87;100444.25;2083683;28;20049;-74
2022/08/24 03:07:22;;;;;;;7.30;4.20;;;;;;;23.13;71.35;100447.69;2100009;28;20070;-73
2022/08/24 03:08:45;;;;;;;14.85;4.90;;;;;;;23.15;71.24;100441.31;2091087;28;20139;-73
2022/08/24 03:10:08;;;;;;;9.52;5.70;;;;;;;23.16;70.93;100439.50;2095142;28;20052;-73
2022/08/24 03:11:31;;;;;;;9.25;4.07;;;;;;;23.16;70.66;100442.19;2095287;28;20136;-73
2022/08/24 03:12:54;;;;;;;8.73;4.65;;;;;;;23.18;70.41;100445.66;2092141;28;20044;-73
2022/08/24 03:14:17;;;;;;;8.23;4.00;;;;;;;23.18;70.30;100445.66;2086785;28;20052;-73
2022/08/24 03:15:40;;;;;;;10.25;4.55;;;;;;;23.19;70.44;100451.00;2092135;28;20427;-73
2022/08/24 03:17:03;;;;;;;7.53;3.97;;;;;;;23.21;70.49;100448.25;2094796;28;20052;-73
2022/08/24 03:18:26;;;;;;;11.05;4.65;;;;;;;23.22;70.43;100458.09;2085681;28;20098;-73
2022/08/24 03:19:49;;;;;;;7.20;3.85;;;;;;;23.18;70.86;100456.44;2086223;28;20061;-73
2022/08/24 03:21:12;;;;;;;8.57;4.03;;;;;;;23.18;71.19;100467.22;2084061;28;20078;-74
2022/08/24 03:22:39;;;;;;;7.80;4.45;;;;;;;23.18;71.49;100464.53;2086606;28;20143;-73
2022/08/24 03:24:01;;;;;;;10.77;5.07;;;;;;;23.19;71.43;100460.91;2092555;28;20045;-73
2022/08/24 03:25:25;;;;;;;7.93;4.30;;;;;;;23.20;71.58;100454.56;2093397;28;20036;-73
2022/08/24 03:26:49;;;;;;;8.77;4.68;;;;;;;23.21;71.47;100448.25;2094054;28;20578;-73
2022/08/24 03:28:11;;;;;;;11.75;4.63;;;;;;;23.19;71.68;100456.38;2086912;28;20056;-73
2022/08/24 03:29:35;;;;;;;8.38;4.10;;;;;;;23.20;71.80;100462.66;2092400;28;20048;-73
2022/08/24 03:30:57;;;;;;;8.70;4.32;;;;;;;23.23;71.56;100467.94;2088819;28;20649;-73
2022/08/24 03:32:20;;;;;;;8.35;4.57;;;;;;;23.27;71.63;100458.78;2086649;28;20072;-73
2022/08/24 03:33:41;;;;;;;10.70;4.38;;;;;;;23.29;71.26;100460.47;2085576;28;20083;-73
2022/08/24 03:35:04;;;;;;;8.55;4.15;;;;;;;23.31;71.47;100458.56;2090424;28;20468;-73
2022/08/24 03:36:27;;;;;;;10.77;4.82;;;;;;;23.34;71.42;100462.97;2093915;28;20067;-73
2022/08/24 03:37:49;;;;;;;11.50;4.75;;;;;;;23.32;71.61;100465.72;2086402;28;20123;-73
2022/08/24 03:39:12;;;;;;;12.18;5.05;;;;;;;23.32;71.48;100470.22;2087443;28;20044;-73
2022/08/24 03:40:34;;;;;;;8.15;4.68;;;;;;;23.32;71.29;100475.63;2094635;28;20099;-73
2022/08/24 03:41:58;;;;;;;13.48;5.72;;;;;;;23.32;71.60;100457.63;2086427;28;20057;-73
2022/08/24 03:45:02;;;;;;;9.73;4.45;;;;;;;23.32;71.42;100454.94;2087445;28;20052;-73
2022/08/24 03:46:31;;;;;;;8.15;4.45;;;;;;;23.33;71.47;100462.09;2087809;28;20067;-74
2022/08/24 03:47:52;;;;;;;8.27;4.28;;;;;;;23.32;71.63;100471.09;2100230;28;20065;-74
2022/08/24 03:49:17;;;;;;;9.43;4.70;;;;;;;23.32;71.66;100460.31;2096435;28;20045;-73
2022/08/24 03:50:39;;;;;;;11.75;4.88;;;;;;;23.32;71.90;100467.53;2093047;28;20068;-74
2022/08/24 03:52:01;;;;;;;;;;;;;;;23.27;71.95;100464.16;2089388;28;20055;-74
2022/08/24 03:53:25;;;;;;;9.25;4.82;;;;;;;23.27;72.19;100466.84;2086510;28;20412;-74
2022/08/24 03:54:46;;;;;;;10.20;4.80;;;;;;;23.26;72.47;100476.75;2088158;28;20036;-74
2022/08/24 03:56:10;;;;;;;12.27;5.35;;;;;;;23.24;72.67;100475.94;2090321;28;20053;-74
2022/08/24 03:57:35;;;;;;;10.65;5.50;;;;;;;23.20;73.33;100476.13;2087896;28;20060;-74
2022/08/24 03:58:57;;;;;;;15.98;6.60;;;;;;;23.17;73.84;100482.50;2087525;28;20040;-75
2022/08/24 04:00:24;;;;;;;11.75;5.70;;;;;;;23.18;74.37;100483.38;2085993;28;20111;-76
2022/08/24 04:01:54;;;;;;;13.98;5.38;;;;;;;23.19;75.02;100486.03;2092894;28;20139;-79
2022/08/24 04:03:16;;;;;;;11.15;5.30;;;;;;;23.14;75.42;100479.06;2086857;28;20052;-78
2022/08/24 04:04:40;;;;;;;13.07;5.60;;;;;;;23.08;76.05;100484.72;2083871;28;20576;-78
2022/08/24 04:06:01;;;;;;;15.25;5.95;;;;;;;23.04;76.64;100483.94;2092307;28;20094;-78
2022/08/24 04:07:24;;;;;;;;;;;;;;;22.98;77.17;100481.50;2089417;28;20084;-77
2022/08/24 04:08:47;;;;;;;10.23;5.43;;;;;;;22.90;77.38;100487.22;2085564;28;20289;-78
2022/08/24 04:10:11;;;;;;;14.15;6.68;;;;;;;22.85;77.96;100482.91;2084587;28;20060;-82
2022/08/24 04:11:35;;;;;;;11.10;6.68;;;;;;;22.79;78.23;100481.34;2084833;28;20159;-80
2022/08/24 04:13:01;;;;;;;14.35;6.13;;;;;;;22.74;78.65;100480.66;2089284;28;20045;-79
2022/08/24 04:14:22;;;;;;;15.65;6.70;;;;;;;22.70;79.12;100486.19;2084383;28;20450;-79
2022/08/24 04:15:51;;;;;;;14.48;6.50;;;;;;;22.69;79.42;100484.44;2091119;28;20078;-78
2022/08/24 04:17:14;;;;;;;13.38;6.15;;;;;;;22.70;79.65;100473.63;2084796;28;20051;-78
2022/08/24 04:18:39;;;;;;;12.35;5.28;;;;;;;22.71;80.06;100482.56;2090656;28;20517;-77
2022/08/24 04:20:02;;;;;;;15.93;6.75;;;;;;;22.73;80.22;100478.00;2086263;28;20041;-77
2022/08/24 04:21:31;;;;;;;11.00;5.47;;;;;;;22.77;80.41;100469.78;2083877;28;20056;-76
2022/08/24 04:22:53;;;;;;;13.00;6.28;;;;;;;22.82;80.57;100465.09;2099682;28;20052;-76
2022/08/24 04:24:16;;;;;;;11.73;5.65;;;;;;;22.90;80.86;100473.75;2091681;28;21461;-76
2022/08/24 04:25:41;;;;;;;15.10;6.20;;;;;;;22.95;81.00;100487.91;2091866;28;20094;-76
2022/08/24 04:27:04;;;;;;;14.48;5.93;;;;;;;22.95;81.29;100482.50;2084146;28;20052;-76
2022/08/24 04:28:29;;;;;;;11.50;5.10;;;;;;;22.93;81.89;100483.50;2088044;28;20512;-77
2022/08/24 04:29:50;;;;;;;13.15;5.13;;;;;;;22.96;82.03;100484.28;2092193;28;20071;-76
2022/08/24 04:31:13;;;;;;;12.10;6.05;;;;;;;23.04;82.43;100487.50;2101718;28;20079;-77
2022/08/24 04:32:39;;;;;;;11.38;5.32;;;;;;;23.10;82.39;100485.53;2092744;28;20106;-76
2022/08/24 04:34:02;;;;;;;12.75;5.80;;;;;;;23.10;82.90;100486.41;2093588;28;20059;-76
2022/08/24 04:35:23;;;;;;;13.45;5.72;;;;;;;23.10;83.36;100480.16;2086381;28;20056;-76
2022/08/24 04:36:47;;;;;;;10.50;5.55;;;;;;;23.03;83.94;100484.91;2084007;28;20037;-76
2022/08/24 04:38:09;;;;;;;12.13;5.40;;;;;;;23.00;84.47;100488.59;2092387;28;20060;-76
2022/08/24 04:39:33;;;;;;;9.45;5.07;;;;;;;23.00;85.08;100491.28;2089667;28;20048;-77
2022/08/24 04:41:04;;;;;;;14.38;5.53;;;;;;;23.06;85.35;100492.84;2094535;28;20143;-76
2022/08/24 04:42:27;;;;;;;8.77;4.95;;;;;;;23.10;85.49;100489.09;2087914;28;20459;-76
2022/08/24 04:43:50;;;;;;;11.35;4.45;;;;;;;23.18;85.33;100494.16;2094442;28;20580;-76
2022/08/24 04:45:13;;;;;;;12.38;5.78;;;;;;;23.25;85.16;100484.88;2094478;28;20056;-76
2022/08/24 04:46:34;;;;;;;12.80;5.10;;;;;;;23.31;84.57;100482.81;2088116;28;20048;-76
2022/08/24 04:47:57;;;;;;;8.23;4.57;;;;;;;23.39;84.36;100485.19;2099908;28;20044;-76
2022/08/24 04:49:21;;;;;;;10.60;4.70;;;;;;;23.41;84.21;100488.72;2102963;28;20060;-76
2022/08/24 04:50:43;;;;;;;14.02;5.07;;;;;;;23.44;84.06;100484.06;2087191;28;20040;-75
2022/08/24 04:52:07;;;;;;;10.57;4.78;;;;;;;23.48;83.47;100481.28;2091034;28;20536;-75
2022/08/24 04:53:29;;;;;;;14.13;4.50;;;;;;;23.46;83.20;100484.00;2087153;28;20080;-75
2022/08/24 04:54:51;;;;;;;13.07;5.55;;;;;;;23.45;82.85;100496.59;2082423;28;20057;-75
2022/08/24 04:56:19;;;;;;;9.43;4.40;;;;;;;23.44;82.69;100486.75;2086794;28;20052;-75
2022/08/24 04:57:41;;;;;;;7.60;4.25;;;;;;;23.40;82.34;100489.66;2084133;28;20053;-75
2022/08/24 04:59:06;;;;;;;8.55;4.18;;;;;;;23.36;82.67;100485.34;2096801;28;20620;-75
2022/08/24 05:00:30;;;;;;;10.70;4.35;;;;;;;23.34;82.61;100495.28;2086460;28;20107;-75
2022/08/24 05:01:52;;;;;;;12.50;4.82;;;;;;;23.32;82.59;100486.38;2083374;28;20071;-75
2022/08/24 05:03:16;;;;;;;12.25;4.72;;;;;;;23.29;82.83;100483.84;2087134;28;20049;-75
2022/08/24 05:04:39;;;;;;;10.23;5.25;;;;;;;23.28;82.95;100482.97;2093606;28;20044;-75
2022/08/24 05:06:03;;;;;;;12.05;5.38;;;;;;;23.27;82.63;100485.72;2094101;28;20421;-75
2022/08/24 05:07:24;;;;;;;10.30;5.55;;;;;;;23.26;82.59;100487.53;2085026;28;20128;-75
2022/08/24 05:08:49;;;;;;;11.93;5.10;;;;;;;23.27;82.56;100481.19;2085298;28;20052;-75
2022/08/24 05:10:12;;;;;;;9.52;5.05;;;;;;;23.28;82.36;100485.66;2088786;28;20159;-75
2022/08/24 05:11:36;;;;;;;14.82;5.28;;;;;;;23.29;82.46;100489.22;2083565;28;20053;-75
2022/08/24 05:12:58;;;;;;;11.00;5.03;;;;;;;23.21;82.58;100488.66;2085482;28;20156;-75
2022/08/24 05:14:23;;;;;;;14.10;5.47;;;;;;;23.18;83.12;100499.53;2083403;28;20048;-75
2022/08/24 05:15:46;;;;;;;14.82;5.60;;;;;;;23.20;83.41;100494.97;2083170;28;20045;-75
2022/08/24 05:17:09;;;;;;;16.05;5.68;;;;;;;23.25;83.78;100491.16;2087434;28;20570;-75
2022/08/24 05:18:32;;;;;;;11.30;5.13;;;;;;;23.33;83.48;100488.16;2094957;28;20576;-75
2022/08/24 05:19:55;;;;;;;10.60;5.43;;;;;;;23.43;83.43;100500.31;2091600;28;20071;-75
2022/08/24 05:21:18;;;;;;;14.43;6.35;;;;;;;23.86;83.50;100493.13;2088467;28;20039;-75
2022/08/24 05:22:41;;;;;;;15.48;5.85;;;;;;;24.36;83.35;100499.00;2085827;28;20072;-75
2022/08/24 05:24:05;;;;;;;14.68;5.03;;;;;;;24.75;83.07;100493.56;2082795;28;20119;-75
2022/08/24 05:25:27;;;;;;;8.52;4.93;;;;;;;25.09;82.71;100492.88;2087893;28;20048;-75
2022/08/24 05:26:51;;;;;;;11.63;4.72;;;;;;;25.41;82.58;100492.16;2091916;28;20074;-75
2022/08/24 05:28:13;;;;;;;9.57;4.20;;;;;;;25.72;82.32;100491.53;2094255;28;20147;-76
2022/08/24 05:29:38;;;;;;;12.15;4.47;;;;;;;25.98;82.40;100491.06;2091985;28;20040;-76
2022/08/24 05:31:06;;;;;;;12.88;4.25;;;;;;;26.20;82.13;100490.78;2084170;28;20053;-75
2022/08/24 05:32:29;;;;;;;11.40;4.18;;;;;;;26.42;82.26;100490.56;2090340;28;20036;-75
2022/08/24 05:33:51;;;;;;;8.02;3.53;;;;;;;26.62;82.37;100497.59;2083552;28;20093;-76
2022/08/24 05:35:14;;;;;;;6.32;3.30;;;;;;;26.71;81.85;100495.25;2082974;28;20064;-75
2022/08/24 05:36:39;;;;;;;7.78;3.22;;;;;;;26.84;81.73;100490.03;2089599;28;20044;-76
2022/08/24 05:38:05;;;;;;;4.90;2.53;;;;;;;26.98;81.53;100495.56;2100741;28;20044;-76
2022/08/24 05:39:32;;;;;;;6.13;2.78;;;;;;;27.14;81.81;100492.88;2088989;28;20421;-76
2022/08/24 05:41:02;;;;;;;9.32;3.05;;;;;;;27.19;81.07;100493.47;2089455;28;20036;-76
2022/08/24 05:42:25;;;;;;;7.60;2.45;;;;;;;27.17;80.43;100492.72;2091823;28;20140;-76
2022/08/24 05:43:47;;;;;;;6.22;2.42;;;;;;;27.28;80.99;100484.81;2083483;28;20044;-75
2022/08/24 05:45:12;;;;;;;6.40;2.58;;;;;;;27.46;80.99;100493.72;2077213;28;20138;-76
2022/08/24 05:46:36;;;;;;;6.32;2.42;;;;;;;27.62;80.47;100492.78;2075853;28;20072;-75
2022/08/24 05:47:59;;;;;;;8.80;2.25;;;;;;;27.73;79.67;100487.56;2083800;28;20045;-75
2022/08/24 05:49:42;;;;;;;7.68;2.75;;;;;;;27.84;79.31;100478.78;2100274;28;20194;-75
2022/08/24 05:51:06;;;;;;;5.07;2.30;;;;;;;27.92;78.59;100476.47;2092962;28;20044;-75
2022/08/24 05:52:32;;;;;;;5.53;2.40;;;;;;;27.93;77.86;100475.50;2087378;28;20040;-75
2022/08/24 05:53:55;;;;;;;7.90;2.20;;;;;;;27.92;77.12;100473.75;2091698;28;20036;-75
2022/08/24 05:55:20;;;;;;;5.90;2.47;;;;;;;27.93;76.55;100467.38;2092633;28;20046;-76
2022/08/24 05:56:43;;;;;;;5.18;2.22;;;;;;;27.88;75.38;100465.91;2094298;28;20079;-76
2022/08/24 05:58:04;;;;;;;8.48;2.35;;;;;;;27.82;75.07;100458.13;2084914;28;20091;-75
2022/08/24 05:59:27;;;;;;;7.63;2.40;;;;;;;27.90;74.86;100463.94;2081986;28;20160;-75
2022/08/24 06:00:50;;;;;;;6.53;2.25;;;;;;;28.09;74.38;100470.03;2097049;28;20055;-76
2022/08/24 06:02:13;;;;;;;10.35;1.85;;;;;;;28.24;73.64;100466.38;2089203;28;20057;-76
2022/08/24 06:03:36;;;;;;;5.45;2.00;;;;;;;28.31;72.99;100469.59;2085048;28;20045;-76
2022/08/24 06:04:59;;;;;;;4.50;1.90;;;;;;;28.42;72.84;100470.66;2083138;28;20572;-76
2022/08/24 06:06:22;;;;;;;6.65;2.30;;;;;;;28.51;72.04;100474.63;2088817;28;20041;-76
2022/08/24 06:07:45;;;;;;;5.45;1.85;;;;;;;28.51;71.37;100474.63;2095649;28;20561;-75
2022/08/24 06:09:12;;;;;;;6.25;1.80;;;;;;;28.54;71.23;100486.19;2092634;28;20043;-76
2022/08/24 06:10:41;;;;;;;5.63;1.77;;;;;;;28.59;70.58;100475.03;2087432;28;20045;-75
2022/08/24 06:12:05;;;;;;;2.47;1.70;;;;;;;28.65;70.20;100481.91;2086001;28;20049;-75
2022/08/24 06:13:28;;;;;;;8.70;2.28;;;;;;;28.76;69.96;100474.84;2090399;28;20044;-75
2022/08/24 06:14:50;;;;;;;6.53;1.88;;;;;;;28.81;68.98;100482.72;2084463;28;20049;-75
2022/08/24 06:16:19;;;;;;;2.83;1.70;;;;;;;28.83;68.58;100480.75;2089295;28;20051;-75
2022/08/24 06:17:42;;;;;;;4.55;1.98;;;;;;;28.89;68.21;100488.50;2090851;28;20082;-75
2022/08/24 06:19:07;;;;;;;5.88;2.15;;;;;;;29.07;67.87;100490.06;2082750;28;20045;-75
2022/08/24 06:20:29;;;;;;;3.08;1.73;;;;;;;29.19;66.84;100493.81;2093926;28;20040;-75
2022/08/24 06:21:55;;;;;;;6.50;2.35;;;;;;;29.38;66.22;100497.09;2092818;28;20575;-75
2022/08/24 06:23:20;;;;;;;5.47;2.65;;;;;;;29.62;64.41;100497.28;2098377;28;20047;-75
2022/08/24 06:28:26;;;;;;;8.45;2.15;;;;;;;29.93;62.49;100486.06;2069292;28;20502;-75
2022/08/24 06:29:48;;;;;;;7.32;2.10;;;;;;;29.61;62.00;100480.06;2058359;28;20514;-74
2022/08/24 06:31:49;;;;;;;7.65;2.25;;;;;;;29.01;62.25;100486.88;2053257;28;20047;-74
2022/08/24 06:33:13;;;;;;;5.70;2.30;;;;;;;28.67;62.42;100480.84;2050585;28;20757;-75
2022/08/24 06:34:41;;;;;;;5.32;2.53;;;;;;;28.39;62.70;100492.59;2077097;28;20078;-74
2022/08/24 06:36:05;;;;;;;8.57;2.47;;;;;;;28.14;63.48;100485.09;2083215;28;20049;-76
2022/08/24 06:37:27;;;;;;;4.47;2.30;;;;;;;27.97;63.82;100487.03;2085182;28;20510;-75